sensor_id;sensor_type;location;lat;lon;timestamp;temperature;humidity
81307;DHT22;70775;50.846;3.224;2023-11-21T00:00:44;10.40;99.90
81307;DHT22;70775;50.846;3.224;2023-11-21T00:03:11;10.40;99.90
81307;DHT22;70775;50.846;3.224;2023-11-21T00:05:42;10.50;99.90
81307;DHT22;70775;50.846;3.224;2023-11-21T00:08:15;10.50;99.90
81307;DHT22;70775;50.846;3.224;2023-11-21T00:10:42;10.50;99.90
81307;DHT22;70775;50.846;3.224;2023-11-21T00:13:08;10.50;99.90
81307;DHT22;70775;50.846;3.224;2023-11-21T00:15:33;10.40;99.90
81307;DHT22;70775;50.846;3.224;2023-11-21T00:18:07;10.40;99.90
81307;DHT22;70775;50.846;3.224;2023-11-21T00:20:32;10.40;99.90
81307;DHT22;70775;50.846;3.224;2023-11-21T00:22:58;10.50;99.90
81307;DHT22;70775;50.846;3.224;2023-11-21T00:25:25;10.50;99.90
81307;DHT22;70775;50.846;3.224;2023-11-21T00:28:21;10.40;99.90
81307;DHT22;70775;50.846;3.224;2023-11-21T00:30:58;10.30;99.90
81307;DHT22;70775;50.846;3.224;2023-11-21T00:33:27;10.30;99.90
81307;DHT22;70775;50.846;3.224;2023-11-21T00:35:53;10.30;99.90
81307;DHT22;70775;50.846;3.224;2023-11-21T00:38:34;10.40;99.90
81307;DHT22;70775;50.846;3.224;2023-11-21T00:40:59;10.40;99.90
81307;DHT22;70775;50.846;3.224;2023-11-21T00:43:26;10.40;99.90
81307;DHT22;70775;50.846;3.224;2023-11-21T00:45:52;10.40;99.90
81307;DHT22;70775;50.846;3.224;2023-11-21T00:48:17;10.40;99.90
81307;DHT22;70775;50.846;3.224;2023-11-21T00:50:45;10.40;99.90
81307;DHT22;70775;50.846;3.224;2023-11-21T00:53:11;10.40;99.90
81307;DHT22;70775;50.846;3.224;2023-11-21T00:55:37;10.40;99.90
81307;DHT22;70775;50.846;3.224;2023-11-21T00:58:05;10.30;99.90
81307;DHT22;70775;50.846;3.224;2023-11-21T01:00:33;10.40;99.90
81307;DHT22;70775;50.846;3.224;2023-11-21T01:02:58;10.40;99.90
81307;DHT22;70775;50.846;3.224;2023-11-21T01:05:32;10.40;99.90
81307;DHT22;70775;50.846;3.224;2023-11-21T01:08:12;10.40;99.90
81307;DHT22;70775;50.846;3.224;2023-11-21T01:10:37;10.40;99.90
81307;DHT22;70775;50.846;3.224;2023-11-21T01:13:03;10.40;99.90
81307;DHT22;70775;50.846;3.224;2023-11-21T01:15:35;10.30;99.90
81307;DHT22;70775;50.846;3.224;2023-11-21T01:18:07;10.40;99.90
81307;DHT22;70775;50.846;3.224;2023-11-21T01:20:37;10.40;99.90
81307;DHT22;70775;50.846;3.224;2023-11-21T01:23:02;10.40;99.90
81307;DHT22;70775;50.846;3.224;2023-11-21T01:25:28;10.40;99.90
81307;DHT22;70775;50.846;3.224;2023-11-21T01:27:53;10.40;99.90
81307;DHT22;70775;50.846;3.224;2023-11-21T01:30:32;10.20;99.90
81307;DHT22;70775;50.846;3.224;2023-11-21T01:32:58;10.10;99.90
81307;DHT22;70775;50.846;3.224;2023-11-21T01:35:24;10.20;99.90
81307;DHT22;70775;50.846;3.224;2023-11-21T01:37:52;10.20;99.90
81307;DHT22;70775;50.846;3.224;2023-11-21T01:40:18;10.30;99.90
81307;DHT22;70775;50.846;3.224;2023-11-21T01:42:45;10.30;99.90
81307;DHT22;70775;50.846;3.224;2023-11-21T01:45:12;10.20;99.90
81307;DHT22;70775;50.846;3.224;2023-11-21T01:47:38;10.20;99.90
81307;DHT22;70775;50.846;3.224;2023-11-21T01:50:40;10.20;99.90
81307;DHT22;70775;50.846;3.224;2023-11-21T01:53:06;10.20;99.90
81307;DHT22;70775;50.846;3.224;2023-11-21T01:56:02;10.10;99.90
81307;DHT22;70775;50.846;3.224;2023-11-21T01:58:51;10.10;99.90
81307;DHT22;70775;50.846;3.224;2023-11-21T02:01:23;10.20;99.90
81307;DHT22;70775;50.846;3.224;2023-11-21T02:03:48;10.20;99.90
81307;DHT22;70775;50.846;3.224;2023-11-21T02:06:14;10.20;99.90
81307;DHT22;70775;50.846;3.224;2023-11-21T02:08:40;10.20;99.90
81307;DHT22;70775;50.846;3.224;2023-11-21T02:11:08;10.10;99.90
81307;DHT22;70775;50.846;3.224;2023-11-21T02:13:34;10.20;99.90
81307;DHT22;70775;50.846;3.224;2023-11-21T02:16:01;10.10;99.90
81307;DHT22;70775;50.846;3.224;2023-11-21T02:18:26;10.00;99.90
81307;DHT22;70775;50.846;3.224;2023-11-21T02:21:14;10.10;99.90
81307;DHT22;70775;50.846;3.224;2023-11-21T02:23:40;10.00;99.90
81307;DHT22;70775;50.846;3.224;2023-11-21T02:26:27;10.00;99.90
81307;DHT22;70775;50.846;3.224;2023-11-21T02:28:53;10.10;99.90
81307;DHT22;70775;50.846;3.224;2023-11-21T02:31:19;10.10;99.90
81307;DHT22;70775;50.846;3.224;2023-11-21T02:33:44;10.20;99.90
81307;DHT22;70775;50.846;3.224;2023-11-21T02:36:17;10.20;99.90
81307;DHT22;70775;50.846;3.224;2023-11-21T02:38:44;10.20;99.90
81307;DHT22;70775;50.846;3.224;2023-11-21T02:41:20;10.20;99.90
81307;DHT22;70775;50.846;3.224;2023-11-21T02:43:46;10.00;99.90
81307;DHT22;70775;50.846;3.224;2023-11-21T02:46:18;10.00;99.90
81307;DHT22;70775;50.846;3.224;2023-11-21T02:49:05;9.90;99.90
81307;DHT22;70775;50.846;3.224;2023-11-21T02:51:33;9.90;99.90
81307;DHT22;70775;50.846;3.224;2023-11-21T02:53:59;9.90;99.90
81307;DHT22;70775;50.846;3.224;2023-11-21T02:56:28;9.90;99.90
81307;DHT22;70775;50.846;3.224;2023-11-21T02:58:56;9.90;99.90
81307;DHT22;70775;50.846;3.224;2023-11-21T03:01:22;9.90;99.90
81307;DHT22;70775;50.846;3.224;2023-11-21T03:03:49;9.90;99.90
81307;DHT22;70775;50.846;3.224;2023-11-21T03:06:17;9.90;99.90
81307;DHT22;70775;50.846;3.224;2023-11-21T03:08:43;9.90;99.90
81307;DHT22;70775;50.846;3.224;2023-11-21T03:11:08;9.90;99.90
81307;DHT22;70775;50.846;3.224;2023-11-21T03:13:34;10.00;99.90
81307;DHT22;70775;50.846;3.224;2023-11-21T03:16:18;10.00;99.90
81307;DHT22;70775;50.846;3.224;2023-11-21T03:18:54;10.00;99.90
81307;DHT22;70775;50.846;3.224;2023-11-21T03:21:20;10.00;99.90
81307;DHT22;70775;50.846;3.224;2023-11-21T03:23:48;10.00;99.90
81307;DHT22;70775;50.846;3.224;2023-11-21T03:26:15;10.10;99.90
81307;DHT22;70775;50.846;3.224;2023-11-21T03:28:42;10.00;99.90
81307;DHT22;70775;50.846;3.224;2023-11-21T03:31:12;10.00;99.90
81307;DHT22;70775;50.846;3.224;2023-11-21T03:33:38;10.10;99.90
81307;DHT22;70775;50.846;3.224;2023-11-21T03:36:09;10.10;99.90
81307;DHT22;70775;50.846;3.224;2023-11-21T03:38:42;10.20;99.90
81307;DHT22;70775;50.846;3.224;2023-11-21T03:41:13;10.20;99.90
81307;DHT22;70775;50.846;3.224;2023-11-21T03:43:40;10.20;99.90
81307;DHT22;70775;50.846;3.224;2023-11-21T03:46:06;10.20;99.90
81307;DHT22;70775;50.846;3.224;2023-11-21T03:48:32;10.30;99.90
81307;DHT22;70775;50.846;3.224;2023-11-21T03:50:58;10.30;99.90
81307;DHT22;70775;50.846;3.224;2023-11-21T03:53:35;10.40;99.90
81307;DHT22;70775;50.846;3.224;2023-11-21T03:56:02;10.30;99.90
81307;DHT22;70775;50.846;3.224;2023-11-21T03:58:29;10.30;99.90
81307;DHT22;70775;50.846;3.224;2023-11-21T04:01:05;10.30;99.90
81307;DHT22;70775;50.846;3.224;2023-11-21T04:03:32;10.30;99.90
81307;DHT22;70775;50.846;3.224;2023-11-21T04:06:03;10.20;99.90
81307;DHT22;70775;50.846;3.224;2023-11-21T04:08:29;10.20;99.90
81307;DHT22;70775;50.846;3.224;2023-11-21T04:10:54;10.20;99.90
81307;DHT22;70775;50.846;3.224;2023-11-21T04:13:25;10.20;99.90
81307;DHT22;70775;50.846;3.224;2023-11-21T04:15:57;10.20;99.90
81307;DHT22;70775;50.846;3.224;2023-11-21T04:18:23;10.30;99.90
81307;DHT22;70775;50.846;3.224;2023-11-21T04:20:49;10.30;99.90
81307;DHT22;70775;50.846;3.224;2023-11-21T04:23:16;10.40;99.90
81307;DHT22;70775;50.846;3.224;2023-11-21T04:25:42;10.30;99.90
81307;DHT22;70775;50.846;3.224;2023-11-21T04:28:18;10.30;99.90
81307;DHT22;70775;50.846;3.224;2023-11-21T04:30:44;10.40;99.90
81307;DHT22;70775;50.846;3.224;2023-11-21T04:33:09;10.50;99.90
81307;DHT22;70775;50.846;3.224;2023-11-21T04:35:35;10.40;99.90
81307;DHT22;70775;50.846;3.224;2023-11-21T04:38:00;10.40;99.90
81307;DHT22;70775;50.846;3.224;2023-11-21T04:40:26;10.40;99.90
81307;DHT22;70775;50.846;3.224;2023-11-21T04:42:52;10.40;99.90
81307;DHT22;70775;50.846;3.224;2023-11-21T04:48:28;10.40;99.90
81307;DHT22;70775;50.846;3.224;2023-11-21T04:51:26;10.40;99.90
81307;DHT22;70775;50.846;3.224;2023-11-21T04:54:00;10.50;99.90
81307;DHT22;70775;50.846;3.224;2023-11-21T04:56:30;10.50;99.90
81307;DHT22;70775;50.846;3.224;2023-11-21T04:59:02;10.50;99.90
81307;DHT22;70775;50.846;3.224;2023-11-21T05:01:28;10.50;99.90
81307;DHT22;70775;50.846;3.224;2023-11-21T05:03:53;10.60;99.90
81307;DHT22;70775;50.846;3.224;2023-11-21T05:06:19;10.60;99.90
81307;DHT22;70775;50.846;3.224;2023-11-21T05:08:45;10.60;99.90
81307;DHT22;70775;50.846;3.224;2023-11-21T05:11:10;10.60;99.90
81307;DHT22;70775;50.846;3.224;2023-11-21T05:13:36;10.70;99.90
81307;DHT22;70775;50.846;3.224;2023-11-21T05:16:28;10.70;99.90
81307;DHT22;70775;50.846;3.224;2023-11-21T05:18:53;10.80;99.90
81307;DHT22;70775;50.846;3.224;2023-11-21T05:21:24;10.90;99.90
81307;DHT22;70775;50.846;3.224;2023-11-21T05:24:07;11.10;99.90
81307;DHT22;70775;50.846;3.224;2023-11-21T05:26:33;11.10;99.90
81307;DHT22;70775;50.846;3.224;2023-11-21T05:29:07;11.20;99.90
81307;DHT22;70775;50.846;3.224;2023-11-21T05:31:32;11.30;99.90
81307;DHT22;70775;50.846;3.224;2023-11-21T05:34:05;11.30;99.90
81307;DHT22;70775;50.846;3.224;2023-11-21T05:36:31;11.30;99.90
81307;DHT22;70775;50.846;3.224;2023-11-21T05:38:56;11.30;99.90
81307;DHT22;70775;50.846;3.224;2023-11-21T05:41:24;11.30;99.90
81307;DHT22;70775;50.846;3.224;2023-11-21T05:43:51;11.40;99.90
81307;DHT22;70775;50.846;3.224;2023-11-21T05:46:16;11.40;99.90
81307;DHT22;70775;50.846;3.224;2023-11-21T05:48:42;11.40;99.90
81307;DHT22;70775;50.846;3.224;2023-11-21T05:51:08;11.30;99.90
81307;DHT22;70775;50.846;3.224;2023-11-21T05:53:35;11.40;99.90
81307;DHT22;70775;50.846;3.224;2023-11-21T05:56:14;11.40;99.90
81307;DHT22;70775;50.846;3.224;2023-11-21T05:58:42;11.40;99.90
81307;DHT22;70775;50.846;3.224;2023-11-21T06:01:07;11.40;99.90
81307;DHT22;70775;50.846;3.224;2023-11-21T06:03:34;11.50;99.90
81307;DHT22;70775;50.846;3.224;2023-11-21T06:06:00;11.50;99.90
81307;DHT22;70775;50.846;3.224;2023-11-21T06:08:26;11.60;99.90
81307;DHT22;70775;50.846;3.224;2023-11-21T06:10:52;11.60;99.90
81307;DHT22;70775;50.846;3.224;2023-11-21T06:13:17;11.60;99.90
81307;DHT22;70775;50.846;3.224;2023-11-21T06:15:50;11.60;99.90
81307;DHT22;70775;50.846;3.224;2023-11-21T06:18:20;11.60;99.90
81307;DHT22;70775;50.846;3.224;2023-11-21T06:20:46;11.60;99.90
81307;DHT22;70775;50.846;3.224;2023-11-21T06:23:12;11.50;99.90
81307;DHT22;70775;50.846;3.224;2023-11-21T06:25:58;11.60;99.90
81307;DHT22;70775;50.846;3.224;2023-11-21T06:28:24;11.50;99.90
81307;DHT22;70775;50.846;3.224;2023-11-21T06:30:51;11.50;99.90
81307;DHT22;70775;50.846;3.224;2023-11-21T06:33:25;11.50;99.90
81307;DHT22;70775;50.846;3.224;2023-11-21T06:36:01;11.50;99.90
81307;DHT22;70775;50.846;3.224;2023-11-21T06:38:29;11.40;99.90
81307;DHT22;70775;50.846;3.224;2023-11-21T06:40:58;11.50;99.90
81307;DHT22;70775;50.846;3.224;2023-11-21T06:43:27;11.50;99.90
81307;DHT22;70775;50.846;3.224;2023-11-21T06:45:53;11.40;99.90
81307;DHT22;70775;50.846;3.224;2023-11-21T06:48:19;11.40;99.90
81307;DHT22;70775;50.846;3.224;2023-11-21T06:50:45;11.50;99.90
81307;DHT22;70775;50.846;3.224;2023-11-21T06:53:12;11.50;99.90
81307;DHT22;70775;50.846;3.224;2023-11-21T06:55:38;11.60;99.90
81307;DHT22;70775;50.846;3.224;2023-11-21T06:58:04;11.60;99.90
81307;DHT22;70775;50.846;3.224;2023-11-21T07:00:30;11.50;99.90
81307;DHT22;70775;50.846;3.224;2023-11-21T07:02:56;11.40;99.90
81307;DHT22;70775;50.846;3.224;2023-11-21T07:05:22;11.50;99.90
81307;DHT22;70775;50.846;3.224;2023-11-21T07:07:49;11.40;99.90
81307;DHT22;70775;50.846;3.224;2023-11-21T07:10:15;11.50;99.90
81307;DHT22;70775;50.846;3.224;2023-11-21T07:12:41;11.50;99.90
81307;DHT22;70775;50.846;3.224;2023-11-21T07:15:07;11.50;99.90
81307;DHT22;70775;50.846;3.224;2023-11-21T07:17:35;11.50;99.90
81307;DHT22;70775;50.846;3.224;2023-11-21T07:20:01;11.50;99.90
81307;DHT22;70775;50.846;3.224;2023-11-21T07:23:01;11.40;99.90
81307;DHT22;70775;50.846;3.224;2023-11-21T07:25:26;11.30;99.90
81307;DHT22;70775;50.846;3.224;2023-11-21T07:27:52;11.20;99.90
81307;DHT22;70775;50.846;3.224;2023-11-21T07:30:20;11.20;99.90
81307;DHT22;70775;50.846;3.224;2023-11-21T07:32:48;11.30;99.90
81307;DHT22;70775;50.846;3.224;2023-11-21T07:35:14;11.30;99.90
81307;DHT22;70775;50.846;3.224;2023-11-21T07:37:39;11.30;99.90
81307;DHT22;70775;50.846;3.224;2023-11-21T07:40:05;11.40;99.90
81307;DHT22;70775;50.846;3.224;2023-11-21T07:42:34;11.40;99.90
81307;DHT22;70775;50.846;3.224;2023-11-21T07:44:59;11.50;99.90
81307;DHT22;70775;50.846;3.224;2023-11-21T07:47:25;11.60;99.90
81307;DHT22;70775;50.846;3.224;2023-11-21T07:49:53;11.60;99.90
81307;DHT22;70775;50.846;3.224;2023-11-21T07:52:18;11.70;99.90
81307;DHT22;70775;50.846;3.224;2023-11-21T07:54:46;11.70;99.90
81307;DHT22;70775;50.846;3.224;2023-11-21T07:57:12;11.80;99.90
81307;DHT22;70775;50.846;3.224;2023-11-21T07:59:39;11.80;99.90
81307;DHT22;70775;50.846;3.224;2023-11-21T08:02:06;11.80;99.90
81307;DHT22;70775;50.846;3.224;2023-11-21T08:04:32;11.80;99.90
81307;DHT22;70775;50.846;3.224;2023-11-21T08:06:58;11.80;99.90
81307;DHT22;70775;50.846;3.224;2023-11-21T08:09:23;11.90;99.90
81307;DHT22;70775;50.846;3.224;2023-11-21T08:11:49;11.90;99.90
81307;DHT22;70775;50.846;3.224;2023-11-21T08:14:16;11.80;99.90
81307;DHT22;70775;50.846;3.224;2023-11-21T08:16:42;11.80;99.90
81307;DHT22;70775;50.846;3.224;2023-11-21T08:19:08;11.80;99.90
81307;DHT22;70775;50.846;3.224;2023-11-21T08:21:34;11.90;99.90
81307;DHT22;70775;50.846;3.224;2023-11-21T08:24:04;11.90;99.90
81307;DHT22;70775;50.846;3.224;2023-11-21T08:26:30;11.90;99.90
81307;DHT22;70775;50.846;3.224;2023-11-21T08:28:56;12.00;99.90
81307;DHT22;70775;50.846;3.224;2023-11-21T08:31:28;11.90;99.90
81307;DHT22;70775;50.846;3.224;2023-11-21T08:33:54;11.90;99.90
81307;DHT22;70775;50.846;3.224;2023-11-21T08:36:24;11.90;99.90
81307;DHT22;70775;50.846;3.224;2023-11-21T08:38:50;11.90;99.90
81307;DHT22;70775;50.846;3.224;2023-11-21T08:41:17;12.00;99.90
81307;DHT22;70775;50.846;3.224;2023-11-21T08:43:49;12.00;99.90
81307;DHT22;70775;50.846;3.224;2023-11-21T08:46:15;12.00;99.90
81307;DHT22;70775;50.846;3.224;2023-11-21T08:48:43;12.10;99.90
81307;DHT22;70775;50.846;3.224;2023-11-21T08:51:10;12.10;99.90
81307;DHT22;70775;50.846;3.224;2023-11-21T08:53:37;12.20;99.90
81307;DHT22;70775;50.846;3.224;2023-11-21T08:56:03;12.30;99.90
81307;DHT22;70775;50.846;3.224;2023-11-21T08:58:30;12.30;99.90
81307;DHT22;70775;50.846;3.224;2023-11-21T09:00:57;12.40;99.90
81307;DHT22;70775;50.846;3.224;2023-11-21T09:03:23;12.40;99.90
81307;DHT22;70775;50.846;3.224;2023-11-21T09:05:48;12.30;99.90
81307;DHT22;70775;50.846;3.224;2023-11-21T09:08:14;12.30;99.90
81307;DHT22;70775;50.846;3.224;2023-11-21T09:10:40;12.30;99.90
81307;DHT22;70775;50.846;3.224;2023-11-21T09:13:07;12.20;99.90
81307;DHT22;70775;50.846;3.224;2023-11-21T09:15:34;12.30;99.90
81307;DHT22;70775;50.846;3.224;2023-11-21T09:18:00;12.20;99.90
81307;DHT22;70775;50.846;3.224;2023-11-21T09:20:27;12.10;99.90
81307;DHT22;70775;50.846;3.224;2023-11-21T09:22:52;12.20;99.90
81307;DHT22;70775;50.846;3.224;2023-11-21T09:25:19;12.20;99.90
81307;DHT22;70775;50.846;3.224;2023-11-21T09:27:46;12.30;99.90
81307;DHT22;70775;50.846;3.224;2023-11-21T09:30:12;12.30;99.90
81307;DHT22;70775;50.846;3.224;2023-11-21T09:32:39;12.30;99.90
81307;DHT22;70775;50.846;3.224;2023-11-21T09:35:06;12.20;99.90
81307;DHT22;70775;50.846;3.224;2023-11-21T09:37:33;12.30;99.90
81307;DHT22;70775;50.846;3.224;2023-11-21T09:39:59;12.40;99.90
81307;DHT22;70775;50.846;3.224;2023-11-21T09:42:40;12.60;99.90
81307;DHT22;70775;50.846;3.224;2023-11-21T09:47:56;12.70;99.90
81307;DHT22;70775;50.846;3.224;2023-11-21T09:50:22;12.70;99.90
81307;DHT22;70775;50.846;3.224;2023-11-21T09:55:30;12.60;99.90
81307;DHT22;70775;50.846;3.224;2023-11-21T09:58:03;12.60;99.90
81307;DHT22;70775;50.846;3.224;2023-11-21T10:00:30;12.70;99.90
81307;DHT22;70775;50.846;3.224;2023-11-21T10:02:58;12.70;99.90
81307;DHT22;70775;50.846;3.224;2023-11-21T10:05:25;12.70;99.90
81307;DHT22;70775;50.846;3.224;2023-11-21T10:07:51;12.90;99.90
81307;DHT22;70775;50.846;3.224;2023-11-21T10:10:19;13.00;99.90
81307;DHT22;70775;50.846;3.224;2023-11-21T10:12:50;13.00;99.90
81307;DHT22;70775;50.846;3.224;2023-11-21T10:15:21;13.10;99.90
81307;DHT22;70775;50.846;3.224;2023-11-21T10:17:49;13.00;99.90
81307;DHT22;70775;50.846;3.224;2023-11-21T10:20:14;12.90;99.90
81307;DHT22;70775;50.846;3.224;2023-11-21T10:22:42;12.90;99.90
81307;DHT22;70775;50.846;3.224;2023-11-21T10:25:12;13.00;99.90
81307;DHT22;70775;50.846;3.224;2023-11-21T10:27:41;12.90;99.90
81307;DHT22;70775;50.846;3.224;2023-11-21T10:30:07;12.80;99.90
81307;DHT22;70775;50.846;3.224;2023-11-21T10:32:37;12.70;99.90
81307;DHT22;70775;50.846;3.224;2023-11-21T10:35:03;12.80;99.90
81307;DHT22;70775;50.846;3.224;2023-11-21T10:37:41;12.50;99.90
81307;DHT22;70775;50.846;3.224;2023-11-21T10:40:09;12.40;99.90
81307;DHT22;70775;50.846;3.224;2023-11-21T10:42:40;12.30;99.90
81307;DHT22;70775;50.846;3.224;2023-11-21T10:45:07;12.40;99.90
81307;DHT22;70775;50.846;3.224;2023-11-21T10:47:41;12.40;99.90
81307;DHT22;70775;50.846;3.224;2023-11-21T10:50:07;12.50;99.90
81307;DHT22;70775;50.846;3.224;2023-11-21T10:52:37;12.60;99.90
81307;DHT22;70775;50.846;3.224;2023-11-21T10:55:16;12.70;99.90
81307;DHT22;70775;50.846;3.224;2023-11-21T10:57:42;12.70;99.90
81307;DHT22;70775;50.846;3.224;2023-11-21T11:00:09;12.70;99.90
81307;DHT22;70775;50.846;3.224;2023-11-21T11:02:38;12.60;99.90
81307;DHT22;70775;50.846;3.224;2023-11-21T11:05:05;12.60;99.90
81307;DHT22;70775;50.846;3.224;2023-11-21T11:07:32;12.60;99.90
81307;DHT22;70775;50.846;3.224;2023-11-21T11:09:59;12.70;99.90
81307;DHT22;70775;50.846;3.224;2023-11-21T11:12:25;12.80;99.90
81307;DHT22;70775;50.846;3.224;2023-11-21T11:14:52;12.90;99.90
81307;DHT22;70775;50.846;3.224;2023-11-21T11:17:19;13.00;99.90
81307;DHT22;70775;50.846;3.224;2023-11-21T11:19:46;13.00;99.90
81307;DHT22;70775;50.846;3.224;2023-11-21T11:22:37;13.00;99.90
81307;DHT22;70775;50.846;3.224;2023-11-21T11:38:23;13.10;99.90
81307;DHT22;70775;50.846;3.224;2023-11-21T11:40:52;13.10;99.90
81307;DHT22;70775;50.846;3.224;2023-11-21T11:43:26;13.10;99.90
81307;DHT22;70775;50.846;3.224;2023-11-21T11:45:55;13.20;99.90
81307;DHT22;70775;50.846;3.224;2023-11-21T11:48:22;13.40;99.90
81307;DHT22;70775;50.846;3.224;2023-11-21T11:51:14;13.60;99.90
81307;DHT22;70775;50.846;3.224;2023-11-21T11:53:43;13.70;99.90
81307;DHT22;70775;50.846;3.224;2023-11-21T11:56:29;13.80;99.90
81307;DHT22;70775;50.846;3.224;2023-11-21T11:58:58;13.70;99.90
81307;DHT22;70775;50.846;3.224;2023-11-21T12:01:26;13.60;99.90
81307;DHT22;70775;50.846;3.224;2023-11-21T12:04:23;13.70;99.90
81307;DHT22;70775;50.846;3.224;2023-11-21T12:06:52;13.50;99.90
81307;DHT22;70775;50.846;3.224;2023-11-21T12:09:20;13.40;99.90
81307;DHT22;70775;50.846;3.224;2023-11-21T12:11:47;13.40;99.90
81307;DHT22;70775;50.846;3.224;2023-11-21T12:14:15;13.40;99.90
81307;DHT22;70775;50.846;3.224;2023-11-21T12:16:41;13.30;99.90
81307;DHT22;70775;50.846;3.224;2023-11-21T12:19:08;13.30;99.90
81307;DHT22;70775;50.846;3.224;2023-11-21T12:21:34;13.30;99.90
81307;DHT22;70775;50.846;3.224;2023-11-21T12:24:01;13.20;99.90
81307;DHT22;70775;50.846;3.224;2023-11-21T12:26:27;13.20;99.90
81307;DHT22;70775;50.846;3.224;2023-11-21T12:28:53;13.30;99.90
81307;DHT22;70775;50.846;3.224;2023-11-21T12:31:24;13.30;99.90
81307;DHT22;70775;50.846;3.224;2023-11-21T12:33:50;13.40;99.90
81307;DHT22;70775;50.846;3.224;2023-11-21T12:36:16;13.50;99.90
81307;DHT22;70775;50.846;3.224;2023-11-21T12:38:42;13.60;99.90
81307;DHT22;70775;50.846;3.224;2023-11-21T12:41:09;13.80;99.90
81307;DHT22;70775;50.846;3.224;2023-11-21T12:43:35;14.10;99.70
81307;DHT22;70775;50.846;3.224;2023-11-21T12:46:08;14.20;99.50
81307;DHT22;70775;50.846;3.224;2023-11-21T12:48:41;14.00;98.30
81307;DHT22;70775;50.846;3.224;2023-11-21T12:51:08;13.80;98.30
81307;DHT22;70775;50.846;3.224;2023-11-21T12:53:35;13.60;98.80
81307;DHT22;70775;50.846;3.224;2023-11-21T12:56:13;13.30;99.60
81307;DHT22;70775;50.846;3.224;2023-11-21T12:58:44;13.30;99.70
81307;DHT22;70775;50.846;3.224;2023-11-21T13:01:13;13.20;99.80
81307;DHT22;70775;50.846;3.224;2023-11-21T13:03:43;13.20;99.40
81307;DHT22;70775;50.846;3.224;2023-11-21T13:06:11;13.10;99.30
81307;DHT22;70775;50.846;3.224;2023-11-21T13:08:38;13.20;99.30
81307;DHT22;70775;50.846;3.224;2023-11-21T13:11:05;13.20;99.90
81307;DHT22;70775;50.846;3.224;2023-11-21T13:13:31;13.30;99.70
81307;DHT22;70775;50.846;3.224;2023-11-21T13:16:00;13.30;98.80
81307;DHT22;70775;50.846;3.224;2023-11-21T13:18:27;13.40;98.10
81307;DHT22;70775;50.846;3.224;2023-11-21T13:20:58;13.40;98.60
81307;DHT22;70775;50.846;3.224;2023-11-21T13:23:24;13.40;98.60
81307;DHT22;70775;50.846;3.224;2023-11-21T13:25:51;13.30;98.10
81307;DHT22;70775;50.846;3.224;2023-11-21T13:28:17;13.20;97.90
81307;DHT22;70775;50.846;3.224;2023-11-21T13:30:48;13.10;98.30
81307;DHT22;70775;50.846;3.224;2023-11-21T13:33:14;13.10;98.50
81307;DHT22;70775;50.846;3.224;2023-11-21T13:35:43;13.10;98.70
81307;DHT22;70775;50.846;3.224;2023-11-21T13:38:17;13.10;98.30
81307;DHT22;70775;50.846;3.224;2023-11-21T13:40:50;13.30;98.30
81307;DHT22;70775;50.846;3.224;2023-11-21T13:43:21;13.30;97.60
81307;DHT22;70775;50.846;3.224;2023-11-21T13:45:48;13.30;97.70
81307;DHT22;70775;50.846;3.224;2023-11-21T13:48:24;13.20;98.10
81307;DHT22;70775;50.846;3.224;2023-11-21T13:51:09;13.10;97.70
81307;DHT22;70775;50.846;3.224;2023-11-21T13:53:47;13.00;97.60
81307;DHT22;70775;50.846;3.224;2023-11-21T13:56:15;13.10;97.00
81307;DHT22;70775;50.846;3.224;2023-11-21T13:58:50;13.00;97.30
81307;DHT22;70775;50.846;3.224;2023-11-21T14:01:23;12.90;97.60
81307;DHT22;70775;50.846;3.224;2023-11-21T14:03:58;12.80;98.00
81307;DHT22;70775;50.846;3.224;2023-11-21T14:06:46;12.80;98.60
81307;DHT22;70775;50.846;3.224;2023-11-21T14:09:17;12.70;98.50
81307;DHT22;70775;50.846;3.224;2023-11-21T14:11:55;12.70;98.60
81307;DHT22;70775;50.846;3.224;2023-11-21T14:14:24;12.60;98.90
81307;DHT22;70775;50.846;3.224;2023-11-21T14:16:56;12.50;99.00
81307;DHT22;70775;50.846;3.224;2023-11-21T14:19:24;12.40;98.50
81307;DHT22;70775;50.846;3.224;2023-11-21T14:21:56;12.50;98.40
81307;DHT22;70775;50.846;3.224;2023-11-21T14:24:22;12.50;98.80
81307;DHT22;70775;50.846;3.224;2023-11-21T14:26:49;12.60;98.80
81307;DHT22;70775;50.846;3.224;2023-11-21T14:29:18;12.90;98.10
81307;DHT22;70775;50.846;3.224;2023-11-21T14:31:47;13.40;96.90
81307;DHT22;70775;50.846;3.224;2023-11-21T14:34:14;13.90;96.20
81307;DHT22;70775;50.846;3.224;2023-11-21T14:36:40;14.60;95.40
81307;DHT22;70775;50.846;3.224;2023-11-21T14:39:06;14.80;94.30
81307;DHT22;70775;50.846;3.224;2023-11-21T14:41:35;15.00;93.80
81307;DHT22;70775;50.846;3.224;2023-11-21T14:44:02;14.90;93.50
81307;DHT22;70775;50.846;3.224;2023-11-21T14:46:29;14.70;94.00
81307;DHT22;70775;50.846;3.224;2023-11-21T14:48:55;14.80;94.10
81307;DHT22;70775;50.846;3.224;2023-11-21T14:51:47;14.60;93.80
81307;DHT22;70775;50.846;3.224;2023-11-21T14:54:32;14.00;94.40
81307;DHT22;70775;50.846;3.224;2023-11-21T14:57:09;13.60;95.10
81307;DHT22;70775;50.846;3.224;2023-11-21T14:59:42;13.30;95.50
81307;DHT22;70775;50.846;3.224;2023-11-21T15:02:08;13.20;95.50
81307;DHT22;70775;50.846;3.224;2023-11-21T15:04:42;13.00;95.80
81307;DHT22;70775;50.846;3.224;2023-11-21T15:07:08;12.80;96.80
81307;DHT22;70775;50.846;3.224;2023-11-21T15:09:34;12.90;96.80
81307;DHT22;70775;50.846;3.224;2023-11-21T15:12:05;13.20;96.30
81307;DHT22;70775;50.846;3.224;2023-11-21T15:14:44;13.30;95.90
81307;DHT22;70775;50.846;3.224;2023-11-21T15:17:12;13.50;95.60
81307;DHT22;70775;50.846;3.224;2023-11-21T15:19:43;13.50;95.30
81307;DHT22;70775;50.846;3.224;2023-11-21T15:22:09;13.70;95.60
81307;DHT22;70775;50.846;3.224;2023-11-21T15:24:37;13.70;95.20
81307;DHT22;70775;50.846;3.224;2023-11-21T15:27:03;13.40;95.30
81307;DHT22;70775;50.846;3.224;2023-11-21T15:29:29;13.40;95.40
81307;DHT22;70775;50.846;3.224;2023-11-21T15:31:55;13.10;95.60
81307;DHT22;70775;50.846;3.224;2023-11-21T15:34:22;12.90;95.70
81307;DHT22;70775;50.846;3.224;2023-11-21T15:36:47;12.70;96.40
81307;DHT22;70775;50.846;3.224;2023-11-21T15:39:18;12.50;96.90
81307;DHT22;70775;50.846;3.224;2023-11-21T15:41:43;12.40;97.10
81307;DHT22;70775;50.846;3.224;2023-11-21T15:44:09;12.30;97.40
81307;DHT22;70775;50.846;3.224;2023-11-21T15:46:36;12.10;97.80
81307;DHT22;70775;50.846;3.224;2023-11-21T15:49:04;12.10;97.90
81307;DHT22;70775;50.846;3.224;2023-11-21T15:54:58;11.90;98.70
81307;DHT22;70775;50.846;3.224;2023-11-21T15:57:24;11.80;98.90
81307;DHT22;70775;50.846;3.224;2023-11-21T15:59:50;11.80;98.90
81307;DHT22;70775;50.846;3.224;2023-11-21T16:02:16;11.80;98.80
81307;DHT22;70775;50.846;3.224;2023-11-21T16:04:41;11.70;99.00
81307;DHT22;70775;50.846;3.224;2023-11-21T16:07:08;11.60;99.70
81307;DHT22;70775;50.846;3.224;2023-11-21T16:09:35;11.50;99.90